• Join FlightAware (Why Join?)
  • Login
  • US Flag 
05:23PM EST


 

Airport Tracker/Info


-or-


 

Live Flight TrackerFlight Track Log ✈ VH-LHH ✈ 13-Aug-2013 ✈ YNEN - YTST

Flight Track Log - Related Links

Times and Time Zones

All times are in EDT time to prevent confusion due to time zone crossing. See the VH-LHH flight status page for this flight to view local times or setup timezone preferences in your user account.

Time Position Orientation Groundspeed Altitude Reporting Facility
EDT Latitude Longitude Course Direction KTS MPH feet Rate Location/Type
07:29PM -10.6814 126.0393 360° North 3,000  Level Aus ATC (Calculated)
07:29PM -10.6814 126.0393 360° North 3,000  Level Aus ATC (Calculated)
07:30PM -10.6814 126.0393 174° South 3,000  Level Aus ATC (Calculated)
07:31PM -10.6966 126.0408 174° South  Level FlightAware Approximate
07:32PM -10.7119 126.0423 174° South  Level FlightAware Approximate
07:33PM -10.7271 126.0439 174° South  Level FlightAware Approximate
07:33PM -10.7955 126.0508 354° North 3,000  Level Aus ATC (Calculated)
07:34PM -10.7423 126.0454 174° South  Level FlightAware Approximate
07:35PM -10.8260 126.0538 174° South  Level FlightAware Approximate
07:35PM -10.8490 126.0561 174° South 3,000  Level Aus ATC (Calculated)
07:36PM -10.9009 126.0614 354° North 3,000  Level Aus ATC (Calculated)
07:37PM -10.8767 126.0589 174° South  Level FlightAware Approximate
07:38PM -10.9234 126.0636 174° South  Level FlightAware Approximate
07:39PM -10.9387 126.0652 174° South  Level FlightAware Approximate
07:39PM -11.0013 126.0715 174° South 3,000  Level Aus ATC (Calculated)
07:40PM -11.0165 126.0730 174° South  Level FlightAware Approximate
07:41PM -11.0317 126.0745 174° South  Level FlightAware Approximate
07:42PM -11.0469 126.0761 174° South  Level FlightAware Approximate
07:43PM -11.0622 126.0776 174° South  Level FlightAware Approximate
07:43PM -11.1896 126.0905 354° North 3,000  Level Aus ATC (Calculated)
07:44PM -11.0774 126.0792 174° South  Level FlightAware Approximate
07:45PM -11.2065 126.0922 174° South  Level FlightAware Approximate
07:46PM -11.2218 126.0937 174° South  Level FlightAware Approximate
07:47PM -11.2370 126.0953 174° South  Level FlightAware Approximate
07:48PM -11.2522 126.0968 174° South  Level FlightAware Approximate
07:49PM -11.2674 126.0984 174° South  Level FlightAware Approximate
07:50PM -11.2826 126.0999 174° South  Level FlightAware Approximate
07:51PM -11.2979 126.1014 174° South  Level FlightAware Approximate
07:52PM -11.3131 126.1030 174° South  Level FlightAware Approximate
07:53PM -11.3283 126.1045 174° South  Level FlightAware Approximate
07:54PM -11.3435 126.1061 174° South  Level FlightAware Approximate
07:55PM -11.3588 126.1076 174° South  Level FlightAware Approximate
07:56PM -11.3740 126.1091 174° South  Level FlightAware Approximate
07:57PM -11.3892 126.1107 174° South  Level FlightAware Approximate
07:58PM -11.4044 126.1122 174° South  Level FlightAware Approximate
07:59PM -11.4196 126.1138 174° South  Level FlightAware Approximate
08:00PM -11.4348 126.1153 174° South  Level FlightAware Approximate
08:01PM -11.4501 126.1168 174° South  Level FlightAware Approximate
08:02PM -11.4653 126.1184 174° South  Level FlightAware Approximate
08:03PM -11.4805 126.1199 174° South  Level FlightAware Approximate
08:04PM -11.4957 126.1215 174° South  Level FlightAware Approximate
08:05PM -11.5110 126.1230 174° South  Level FlightAware Approximate
08:06PM -11.5262 126.1245 174° South  Level FlightAware Approximate
08:07PM -11.5414 126.1261 174° South  Level FlightAware Approximate
08:08PM -11.5566 126.1276 174° South  Level FlightAware Approximate
08:09PM -11.5718 126.1292 174° South  Level FlightAware Approximate
08:10PM -11.5871 126.1307 174° South  Level FlightAware Approximate
08:11PM -11.6023 126.1322 174° South  Level FlightAware Approximate
08:12PM -11.6175 126.1338 174° South  Level FlightAware Approximate
08:13PM -11.6327 126.1353 174° South  Level FlightAware Approximate
08:14PM -11.6479 126.1369 174° South  Level FlightAware Approximate
08:15PM -11.6631 126.1384 174° South  Level FlightAware Approximate
08:16PM -11.6784 126.1399 174° South  Level FlightAware Approximate
08:16PM -12.1779 126.1907 174° South 3,000  Level Aus ATC (Calculated)
08:18PM -12.2018 126.1931 174° South  Level FlightAware Approximate
08:19PM -12.2170 126.1946 174° South  Level FlightAware Approximate
08:20PM -12.2322 126.1962 174° South  Level FlightAware Approximate
08:20PM -12.2603 126.1990 174° South 3,000  Level Aus ATC (Calculated)
08:21PM -12.3221 126.2053 354° North 3,000  Level Aus ATC (Calculated)
08:22PM -12.2841 126.2014 174° South  Level FlightAware Approximate
08:23PM -12.3446 126.2076 174° South  Level FlightAware Approximate
08:23PM -12.4147 126.2148 360° North 3,000  Level Aus ATC (Calculated)
08:23PM -12.4147 126.2148 174° South 3,000  Level Aus ATC (Calculated)
08:25PM -12.4397 126.2173 174° South  Level FlightAware Approximate
08:25PM -12.4610 126.2195 354° North 3,000  Level Aus ATC (Calculated)
08:26PM -12.4559 126.2189 174° South  Level FlightAware Approximate
08:27PM -12.4850 126.2219 174° South  Level FlightAware Approximate
08:28PM -12.5011 126.2236 174° South  Level FlightAware Approximate
08:29PM -12.5173 126.2252 174° South  Level FlightAware Approximate
08:30PM -12.5334 126.2269 174° South  Level FlightAware Approximate
08:31PM -12.5496 126.2285 174° South  Level FlightAware Approximate
08:32PM -12.5657 126.2302 174° South  Level FlightAware Approximate
08:33PM -12.5819 126.2318 174° South  Level FlightAware Approximate
08:34PM -12.5980 126.2335 174° South  Level FlightAware Approximate
08:35PM -12.6142 126.2351 174° South  Level FlightAware Approximate
08:36PM -12.6303 126.2368 174° South  Level FlightAware Approximate
08:37PM -12.6465 126.2384 174° South  Level FlightAware Approximate
08:38PM -12.6626 126.2401 174° South  Level FlightAware Approximate
08:39PM -12.6788 126.2417 174° South  Level FlightAware Approximate
08:40PM -12.6949 126.2434 174° South  Level FlightAware Approximate
08:41PM -12.7111 126.2450 174° South  Level FlightAware Approximate
08:42PM -12.7272 126.2467 174° South  Level FlightAware Approximate
08:43PM -12.7434 126.2483 174° South  Level FlightAware Approximate
08:44PM -12.7595 126.2500 174° South  Level FlightAware Approximate
08:45PM -12.7757 126.2516 174° South  Level FlightAware Approximate
08:46PM -12.7918 126.2533 174° South  Level FlightAware Approximate
08:47PM -12.8080 126.2549 174° South  Level FlightAware Approximate
08:48PM -12.8241 126.2566 174° South  Level FlightAware Approximate
08:49PM -12.8403 126.2582 174° South  Level FlightAware Approximate
08:50PM -12.8564 126.2599 174° South  Level FlightAware Approximate
08:51PM -12.8726 126.2615 174° South  Level FlightAware Approximate
08:52PM -12.8887 126.2632 174° South  Level FlightAware Approximate
08:53PM -12.9049 126.2648 174° South  Level FlightAware Approximate
08:54PM -12.9210 126.2665 174° South  Level FlightAware Approximate
08:55PM -12.9372 126.2681 174° South  Level FlightAware Approximate
08:56PM -12.9533 126.2698 174° South  Level FlightAware Approximate
08:57PM -12.9695 126.2714 174° South  Level FlightAware Approximate
08:58PM -12.9856 126.2731 174° South  Level FlightAware Approximate
08:59PM -13.0018 126.2747 174° South  Level FlightAware Approximate
09:00PM -13.0179 126.2764 174° South  Level FlightAware Approximate
09:01PM -13.0341 126.2780 174° South  Level FlightAware Approximate
09:02PM -13.0502 126.2797 174° South  Level FlightAware Approximate
09:03PM -13.0664 126.2813 174° South  Level FlightAware Approximate
09:04PM -13.0825 126.2830 174° South  Level FlightAware Approximate
09:05PM -13.0987 126.2846 174° South  Level FlightAware Approximate
09:06PM -13.1148 126.2863 174° South  Level FlightAware Approximate
09:06PM -13.7930 126.3512 173° South  Level Aus ATC (Calculated)
09:08PM -13.8250 126.3550 173° South  Level FlightAware Approximate
09:09PM -13.8411 126.3569 173° South  Level FlightAware Approximate
09:10PM -13.8572 126.3588 173° South  Level FlightAware Approximate
09:11PM -13.8734 126.3604 174° South  Level Estimated
09:12PM -13.8896 126.3619 174° South  Level Estimated
09:13PM -13.9057 126.3635 174° South  Level Estimated
09:14PM -13.9219 126.3650 174° South  Level Estimated
09:15PM -13.9380 126.3666 174° South  Level Estimated
09:16PM -13.9542 126.3681 174° South  Level Estimated